MMTC

Details ICAO MMTC (TRC)
Name TORREON INTL
Region Mexico
Timezone America/Monterrey (UTC-5.0)
Plans Departing 29
Arriving 33
Stats Elevation 3,688 ft / 1,124 m (AMSL)
Location 25.565639° -103.405389°
Runways 2
Magnetic Variation 6.407° E
Sunrise 2018-05-25 12:05:42 UTC / 2018-05-25 07:05:42 Local
Sunset 2018-05-26 01:38:21 UTC / 2018-05-25 20:38:21 Local
Advertisement - Login to hide

Runways

ID Width Length Bearing (true) Bearing (mag) Surface Threshold Offset Overrun Length
08 98 ft / 30 m 5,688 ft / 1,734 m 90.71° 84.30° Asphalt 984 ft / 300 m 0 ft / 0 m
12 148 ft / 45 m 9,032 ft / 2,753 m 135.94° 129.53° Asphalt 0 ft / 0 m 185 ft / 56 m
26 98 ft / 30 m 5,688 ft / 1,734 m 270.72° 264.31° Asphalt 0 ft / 0 m 0 ft / 0 m
30 148 ft / 45 m 9,032 ft / 2,753 m 315.95° 309.54° Asphalt 0 ft / 0 m 185 ft / 56 m

Map

Weather


0- 5 10 15 20 25 30 35+ Temperature / ° C

Clouds and Precipitation
Forecast for 2018-05-25 12:00 UTC. Updated 2 minutes ago

Ground ~20,000 ft ~40,000 ft Winds

METAR

Not found

TAF

TAF AMD MMTC 250122Z 2501/2518 04006KT P6SM SCT030CB TEMPO 2501/2503 4SM BLDU TS BKN030CB FM250400 09008KT P6SM BKN240

Frequencies

Tower 118.50 MHz TWR
Approach 119.50 MHz APP
Warning: Do not use this data for real-world aviation or navigation. No guarantee of current accuracy is given.